Aeroporto :
LOGIN :

Iscrizione | Disclaimer

   EN    FR    IT 

 










Sommario :    VFR   VFR Marginale   IFR   IFR Intensivo   IFR Molto Intensivo
Visibilità : 
Base nubi : 
>= 8 km
>= 3000ft
5 / 8 km
1000 / 3000 ft
1500m / 5 km
500 / 1000 ft
800 / 1500m
200 / 500 ft
< 800m
< 200 ft
Simboli :   Temporali  Nebbia  Neve Forte  Precipitazioni Forti  Vento > 20 kt
SIGMETs :   Varie  Temporali  Ghiacco  Turbolenza  Onda orograficha  Ceneri Vulcaniche






- Altitudine del aeroporto : 59 ft
- Codice IATA : TSF


LIPH - Treviso

ULTIMO METAR :
  • 151220Z 13007KT 9999 -RA BKN070 16/12 Q1003

METARs OBSOLETI :
  • 151150Z 14007KT 110V180 9999 BKN070 16/12 Q1003
  • 151120Z 11004KT 060V140 9999 BKN070 16/13 Q1003
  • 151050Z 11005KT 070V130 9999 BKN070 15/13 Q1003
  • 151020Z 12006KT 9999 BKN065 15/13 Q1004
  • 150950Z 12006KT 9000 -RA BKN070 15/13 Q1004 RERA

TAF TAF LIPH
Valido dal 15 a 12 ore il 16 a 12 ore UTC


151100Z 1512/1612 VRB05KT 9999 RA SCT020 BKN050
TEMPO 1512/1518 3000 TSRA
BECMG 1516/1518 25010KT
BECMG 1606/1608 03007 NSW



MetMap, La meteo Aeronautica in un colpo d'occhio ! - Copyright ORBIFLY Dicembre 2007 - Disclaimer

ORBIFLY MET'MAP TEAM :

Programmazione e sviluppo : Alexandra Zaïnal
Concezione e sviluppo : Baudouin d'Aumeries
Co-Programmazione e sviluppo : Marc-Olivier Méhu
Supporto tecnico e logistico : Manuel Goepfert
Aiuto per la traduzione : Arnaldo La Scala

Contatto : metmap@orbifly.com




FONTI E CREDITI :

   NOAA